createdAt,value
2019-04-19T00:02:23.827Z,96538.00
2019-04-19T00:05:02.484Z,96542.00
2019-04-19T00:07:33.819Z,96529.00
2019-04-19T00:10:23.823Z,96538.00
2019-04-19T00:12:50.023Z,96533.00
2019-04-19T00:15:15.884Z,96536.00
2019-04-19T00:17:53.091Z,96540.00
2019-04-19T00:20:38.224Z,96531.00
2019-04-19T00:23:08.473Z,96530.00
2019-04-19T00:25:30.347Z,96536.00
2019-04-19T00:28:07.013Z,96539.00
2019-04-19T00:30:49.472Z,96533.00
2019-04-19T00:33:25.084Z,96532.00
2019-04-19T00:35:47.468Z,96538.00
2019-04-19T00:38:36.883Z,96536.00
2019-04-19T00:41:18.856Z,96536.00
2019-04-19T00:43:58.476Z,96533.00
2019-04-19T00:46:40.628Z,96535.00
2019-04-19T00:49:12.342Z,96525.00
2019-04-19T00:51:43.166Z,96526.00
2019-04-19T00:54:13.049Z,96528.00
2019-04-19T00:56:47.216Z,96529.00
2019-04-19T00:59:14.284Z,96526.00
2019-04-19T01:01:46.880Z,96531.00
2019-04-19T01:04:21.635Z,96525.00
2019-04-19T01:06:55.593Z,96524.00
2019-04-19T01:09:38.762Z,96528.00
2019-04-19T01:12:10.677Z,96523.00
2019-04-19T01:14:40.357Z,96527.00
2019-04-19T01:17:20.659Z,96529.00
2019-04-19T01:19:47.220Z,96525.00
2019-04-19T01:22:16.140Z,96529.00
2019-04-19T01:24:49.473Z,96523.00
2019-04-19T01:27:27.353Z,96533.00
2019-04-19T01:29:57.530Z,96527.00
2019-04-19T01:32:28.506Z,96534.00
2019-04-19T01:35:06.456Z,96537.00
2019-04-19T01:37:34.859Z,96531.00
2019-04-19T01:40:24.993Z,96537.00
2019-04-19T01:43:00.416Z,96538.00
2019-04-19T01:45:49.390Z,96530.00
2019-04-19T01:48:56.091Z,96546.00
2019-04-19T01:51:42.712Z,96544.00
2019-04-19T01:54:33.012Z,96539.00
2019-04-19T01:56:57.260Z,96548.00
2019-04-19T01:59:33.089Z,96543.00
2019-04-19T02:02:04.862Z,96550.00
2019-04-19T02:04:35.167Z,96542.00
2019-04-19T02:07:12.574Z,96548.00
2019-04-19T02:09:54.198Z,96542.00
2019-04-19T02:12:30.777Z,96552.00
2019-04-19T02:14:57.381Z,96549.00
2019-04-19T02:17:23.148Z,96548.00
2019-04-19T02:20:00.439Z,96550.00
2019-04-19T02:22:33.073Z,96551.00
2019-04-19T02:25:03.863Z,96556.00
2019-04-19T02:27:40.742Z,96551.00
2019-04-19T02:30:19.358Z,96553.00
2019-04-19T02:33:07.043Z,96552.00
2019-04-19T02:35:47.916Z,96562.00
2019-04-19T02:38:21.521Z,96558.00
2019-04-19T02:41:14.022Z,96568.00
2019-04-19T02:46:17.603Z,96556.00
2019-04-19T02:48:38.980Z,96557.00
2019-04-19T02:51:17.191Z,96559.00
2019-04-19T02:53:39.114Z,96570.00
2019-04-19T02:56:46.894Z,96568.00
2019-04-19T02:59:21.276Z,96574.00
2019-04-19T03:06:56.188Z,96575.00
2019-04-19T03:09:32.909Z,96576.00
2019-04-19T03:12:19.831Z,96580.00
2019-04-19T03:15:02.110Z,96577.00
2019-04-19T03:17:24.507Z,96582.00
2019-04-19T03:19:55.644Z,96580.00
2019-04-19T03:22:31.878Z,96581.00
2019-04-19T03:25:08.257Z,96577.00
2019-04-19T03:27:28.416Z,96580.00
2019-04-19T03:30:12.579Z,96577.00
2019-04-19T03:35:16.338Z,96575.00
2019-04-19T03:37:56.967Z,96584.00
2019-04-19T03:40:29.995Z,96587.00
2019-04-19T03:43:19.583Z,96583.00
2019-04-19T03:45:51.510Z,96580.00
2019-04-19T03:48:25.526Z,96587.00
2019-04-19T03:51:00.500Z,96598.00
2019-04-19T03:53:42.090Z,96587.00
2019-04-19T03:56:06.447Z,96605.00
2019-04-19T03:58:21.467Z,96601.00
2019-04-19T04:00:52.020Z,96607.00
2019-04-19T04:03:30.456Z,96602.00
2019-04-19T04:05:58.305Z,96610.00
2019-04-19T04:08:34.605Z,96615.00
2019-04-19T04:11:28.180Z,96616.00
2019-04-19T04:14:16.964Z,96613.00
2019-04-19T04:16:47.163Z,96610.00
2019-04-19T04:19:16.545Z,96618.00
2019-04-19T04:21:51.310Z,96615.00
2019-04-19T04:24:31.120Z,96617.00
2019-04-19T04:27:05.853Z,96624.00
2019-04-19T04:29:37.335Z,96622.00
2019-04-19T04:32:14.848Z,96627.00
2019-04-19T04:34:51.317Z,96630.00
2019-04-19T04:37:28.322Z,96641.00
2019-04-19T04:39:45.599Z,96647.00
2019-04-19T04:42:25.238Z,96635.00
2019-04-19T04:45:18.842Z,96636.00
2019-04-19T04:47:47.281Z,96645.00
2019-04-19T04:50:44.496Z,96642.00
2019-04-19T04:53:07.146Z,96646.00
2019-04-19T04:55:45.094Z,96655.00
2019-04-19T04:58:25.346Z,96643.00
2019-04-19T05:00:57.127Z,96646.00
2019-04-19T05:03:43.145Z,96654.00
2019-04-19T05:06:16.487Z,96657.00
2019-04-19T05:08:50.120Z,96661.00
2019-04-19T05:11:22.853Z,96657.00
2019-04-19T05:14:03.073Z,96664.00
2019-04-19T05:16:51.011Z,96670.00
2019-04-19T05:19:03.903Z,96675.00
2019-04-19T05:21:37.392Z,96670.00
2019-04-19T05:24:14.990Z,96685.00
2019-04-19T05:26:52.627Z,96678.00
2019-04-19T05:29:15.435Z,96686.00
2019-04-19T05:31:41.269Z,96679.00
2019-04-19T05:34:30.946Z,96676.00
2019-04-19T05:36:58.834Z,96680.00
2019-04-19T05:39:48.403Z,96683.00
2019-04-19T05:42:13.041Z,96688.00
2019-04-19T05:45:14.556Z,96690.00
2019-04-19T05:47:32.396Z,96685.00
2019-04-19T05:50:07.547Z,96686.00
2019-04-19T05:52:39.813Z,96682.00
2019-04-19T05:54:56.020Z,96683.00
2019-04-19T05:57:49.112Z,96686.00
2019-04-19T06:00:16.151Z,96685.00
2019-04-19T06:02:50.275Z,96680.00
2019-04-19T06:05:33.845Z,96687.00
2019-04-19T06:07:58.617Z,96682.00
2019-04-19T06:10:17.381Z,96685.00
2019-04-19T06:12:56.293Z,96687.00
2019-04-19T06:15:51.206Z,96680.00
2019-04-19T06:18:34.240Z,96680.00
2019-04-19T06:21:17.316Z,96683.00
2019-04-19T06:23:50.783Z,96680.00
2019-04-19T06:26:50.332Z,96689.00
2019-04-19T06:29:01.352Z,96674.00
2019-04-19T06:31:46.234Z,96673.00
2019-04-19T06:34:02.769Z,96682.00
2019-04-19T06:36:16.194Z,96680.00
2019-04-19T06:38:48.643Z,96680.00
2019-04-19T06:41:23.834Z,96679.00
2019-04-19T06:44:07.879Z,96682.00
2019-04-19T06:46:39.470Z,96674.00
2019-04-19T06:49:09.562Z,96678.00
2019-04-19T06:51:45.718Z,96677.00
2019-04-19T06:54:12.305Z,96677.00
2019-04-19T06:56:53.728Z,96687.00
2019-04-19T06:59:29.954Z,96679.00
2019-04-19T07:01:55.931Z,96683.00
2019-04-19T07:04:26.038Z,96682.00
2019-04-19T07:07:16.234Z,96677.00
2019-04-19T07:10:01.544Z,96687.00
2019-04-19T07:12:23.940Z,96683.00
2019-04-19T07:14:53.397Z,96681.00
2019-04-19T07:17:30.207Z,96682.00
2019-04-19T07:20:03.363Z,96681.00
2019-04-19T07:22:39.144Z,96691.00
2019-04-19T07:25:18.714Z,96685.00
2019-04-19T07:27:43.103Z,96681.00
2019-04-19T07:30:03.398Z,96694.00
2019-04-19T07:32:42.791Z,96684.00
2019-04-19T07:35:29.695Z,96686.00
2019-04-19T07:38:04.495Z,96695.00
2019-04-19T07:40:37.120Z,96689.00
2019-04-19T07:43:05.517Z,96696.00
2019-04-19T07:45:57.782Z,96694.00
2019-04-19T07:48:13.557Z,96699.00
2019-04-19T07:50:54.877Z,96703.00
2019-04-19T07:53:22.939Z,96705.00
2019-04-19T07:56:00.784Z,96705.00
2019-04-19T08:01:39.434Z,96707.00
2019-04-19T08:04:11.845Z,96712.00
2019-04-19T08:06:36.053Z,96709.00
2019-04-19T08:09:10.939Z,96709.00
2019-04-19T08:14:35.840Z,96711.00
2019-04-19T08:29:23.187Z,96715.00
2019-04-19T08:31:44.391Z,96717.00
2019-04-19T08:34:20.801Z,96717.00
2019-04-19T08:36:55.529Z,96720.00
2019-04-19T08:39:43.328Z,96734.00
2019-04-19T08:42:16.096Z,96725.00
2019-04-19T08:44:43.171Z,96726.00
2019-04-19T08:47:40.635Z,96724.00
2019-04-19T08:50:20.384Z,96724.00
2019-04-19T08:52:59.223Z,96723.00
2019-04-19T08:55:46.175Z,96727.00
2019-04-19T08:58:08.037Z,96732.00
2019-04-19T09:00:57.926Z,96726.00
2019-04-19T09:03:36.736Z,96724.00
2019-04-19T09:06:34.917Z,96723.00
2019-04-19T09:08:32.504Z,96723.00
2019-04-19T09:11:07.392Z,96722.00
2019-04-19T09:13:41.856Z,96724.00
2019-04-19T09:16:12.752Z,96734.00
2019-04-19T09:18:57.265Z,96729.00
2019-04-19T09:21:20.582Z,96721.00
2019-04-19T09:23:47.861Z,96721.00
2019-04-19T09:26:30.788Z,96728.00
2019-04-19T09:29:14.269Z,96727.00
2019-04-19T09:31:31.866Z,96725.00
2019-04-19T09:34:01.033Z,96725.00
2019-04-19T09:36:35.481Z,96726.00
2019-04-19T09:39:16.442Z,96726.00
2019-04-19T09:41:42.405Z,96729.00
2019-04-19T09:44:16.917Z,96724.00
2019-04-19T09:46:42.530Z,96721.00
2019-04-19T09:49:26.603Z,96715.00
2019-04-19T09:52:07.062Z,96724.00
2019-04-19T09:54:48.029Z,96724.00
2019-04-19T09:57:22.599Z,96710.00
2019-04-19T09:59:35.804Z,96721.00
2019-04-19T10:02:11.236Z,96728.00
2019-04-19T10:04:46.132Z,96713.00
2019-04-19T10:07:29.146Z,96720.00
2019-04-19T10:10:04.733Z,96723.00
2019-04-19T10:12:35.658Z,96711.00
2019-04-19T10:15:12.141Z,96708.00
2019-04-19T10:17:46.860Z,96725.00
2019-04-19T10:20:22.650Z,96723.00
2019-04-19T10:22:55.222Z,96721.00
2019-04-19T10:25:33.630Z,96721.00
2019-04-19T10:28:06.097Z,96723.00
2019-04-19T10:30:46.347Z,96718.00
2019-04-19T10:33:31.095Z,96726.00
2019-04-19T10:35:52.033Z,96726.00
2019-04-19T10:38:23.870Z,96717.00
2019-04-19T10:40:55.827Z,96717.00
2019-04-19T10:43:27.939Z,96707.00
2019-04-19T10:46:00.634Z,96730.00
2019-04-19T10:48:32.790Z,96724.00
2019-04-19T10:51:10.797Z,96717.00
2019-04-19T10:53:44.292Z,96721.00
2019-04-19T10:56:40.646Z,96714.00
2019-04-19T10:59:12.776Z,96713.00
2019-04-19T11:01:45.430Z,96719.00
2019-04-19T11:04:17.799Z,96706.00
2019-04-19T11:06:51.455Z,96714.00
2019-04-19T11:09:23.349Z,96714.00
2019-04-19T11:11:55.526Z,96712.00
2019-04-19T11:14:28.241Z,96713.00
2019-04-19T11:17:01.756Z,96718.00
2019-04-19T11:19:51.858Z,96713.00
2019-04-19T11:22:07.873Z,96712.00
2019-04-19T11:24:41.561Z,96718.00
2019-04-19T11:27:13.537Z,96707.00
2019-04-19T11:29:46.855Z,96709.00
2019-04-19T11:32:54.749Z,96707.00
2019-04-19T11:35:32.447Z,96714.00
2019-04-19T11:38:04.909Z,96713.00
2019-04-19T11:40:37.394Z,96719.00
2019-04-19T11:43:11.853Z,96716.00
2019-04-19T11:45:44.019Z,96711.00
2019-04-19T11:48:16.275Z,96724.00
2019-04-19T11:50:48.157Z,96720.00
2019-04-19T11:53:36.552Z,96720.00
2019-04-19T11:56:47.507Z,96717.00
2019-04-19T11:59:18.414Z,96716.00
2019-04-19T12:01:52.174Z,96708.00
2019-04-19T12:04:24.208Z,96726.00
2019-04-19T12:06:56.870Z,96724.00
2019-04-19T12:09:30.353Z,96728.00
2019-04-19T12:12:03.197Z,96718.00
2019-04-19T12:14:35.427Z,96725.00
2019-04-19T12:17:09.037Z,96723.00
2019-04-19T12:19:50.187Z,96730.00
2019-04-19T12:22:14.985Z,96726.00
2019-04-19T12:24:50.801Z,96723.00
2019-04-19T12:27:21.306Z,96726.00
2019-04-19T12:29:55.195Z,96722.00
2019-04-19T12:32:37.406Z,96728.00
2019-04-19T12:35:10.867Z,96729.00
2019-04-19T12:37:45.015Z,96727.00
2019-04-19T12:40:22.811Z,96717.00
2019-04-19T12:42:53.978Z,96723.00
2019-04-19T12:45:26.183Z,96723.00
2019-04-19T12:48:00.917Z,96726.00
2019-04-19T12:50:36.172Z,96719.00
2019-04-19T12:53:07.175Z,96725.00
2019-04-19T12:55:39.942Z,96728.00
2019-04-19T12:58:19.706Z,96724.00
2019-04-19T13:01:08.046Z,96718.00
2019-04-19T13:04:00.398Z,96716.00
2019-04-19T13:06:33.714Z,96729.00
2019-04-19T13:09:07.247Z,96721.00
2019-04-19T13:11:40.777Z,96722.00
2019-04-19T13:14:12.999Z,96719.00
2019-04-19T13:16:46.250Z,96710.00
2019-04-19T13:19:20.566Z,96711.00
2019-04-19T13:21:52.283Z,96715.00
2019-04-19T13:24:24.835Z,96715.00
2019-04-19T13:26:57.130Z,96716.00
2019-04-19T13:29:29.427Z,96709.00
2019-04-19T13:32:01.856Z,96708.00
2019-04-19T13:34:34.075Z,96711.00
2019-04-19T13:37:34.119Z,96705.00
2019-04-19T13:40:30.339Z,96709.00
2019-04-19T13:43:03.265Z,96706.00
2019-04-19T13:45:36.901Z,96705.00
2019-04-19T13:48:10.509Z,96705.00
2019-04-19T13:50:44.433Z,96704.00
2019-04-19T13:53:15.988Z,96702.00
2019-04-19T13:55:48.660Z,96708.00
2019-04-19T13:58:22.044Z,96705.00
2019-04-19T14:00:56.379Z,96702.00
2019-04-19T14:03:28.201Z,96703.00
2019-04-19T14:06:00.348Z,96702.00
2019-04-19T14:08:33.058Z,96702.00
2019-04-19T14:11:06.773Z,96704.00
2019-04-19T14:13:39.197Z,96703.00
2019-04-19T14:16:11.194Z,96706.00
2019-04-19T14:18:44.655Z,96702.00
2019-04-19T14:21:17.353Z,96702.00
2019-04-19T14:23:49.211Z,96689.00
2019-04-19T14:26:32.620Z,96686.00
2019-04-19T14:28:55.072Z,96700.00
2019-04-19T14:31:28.194Z,96694.00
2019-04-19T14:34:01.331Z,96695.00
2019-04-19T14:36:34.038Z,96697.00
2019-04-19T14:39:08.986Z,96694.00
2019-04-19T14:41:41.367Z,96698.00
2019-04-19T14:44:13.408Z,96689.00
2019-04-19T14:46:45.316Z,96686.00
2019-04-19T14:49:17.098Z,96703.00
2019-04-19T14:51:50.004Z,96689.00
2019-04-19T14:54:23.325Z,96686.00
2019-04-19T14:56:56.492Z,96695.00
2019-04-19T14:59:29.848Z,96686.00
2019-04-19T15:02:27.190Z,96695.00
2019-04-19T15:05:03.502Z,96695.00
2019-04-19T15:07:36.518Z,96692.00
2019-04-19T15:10:09.282Z,96689.00
2019-04-19T15:12:42.752Z,96690.00
2019-04-19T15:15:14.718Z,96685.00
2019-04-19T15:17:47.617Z,96685.00
2019-04-19T15:20:20.280Z,96679.00
2019-04-19T15:22:52.661Z,96681.00
2019-04-19T15:25:25.625Z,96677.00
2019-04-19T15:27:59.014Z,96675.00
2019-04-19T15:30:30.958Z,96673.00
2019-04-19T15:33:02.834Z,96675.00
2019-04-19T15:35:34.924Z,96676.00
2019-04-19T15:38:07.854Z,96674.00
2019-04-19T15:40:40.386Z,96676.00
2019-04-19T15:43:12.980Z,96676.00
2019-04-19T15:45:45.457Z,96676.00
2019-04-19T15:48:28.446Z,96679.00
2019-04-19T15:50:53.057Z,96681.00
2019-04-19T15:53:26.349Z,96679.00
2019-04-19T15:55:58.498Z,96688.00
2019-04-19T15:58:30.902Z,96690.00
2019-04-19T16:01:06.059Z,96685.00
2019-04-19T16:03:58.428Z,96685.00
2019-04-19T16:06:52.171Z,96683.00
2019-04-19T16:09:42.020Z,96688.00
2019-04-19T16:12:42.322Z,96689.00
2019-04-19T16:15:14.148Z,96692.00
2019-04-19T16:17:46.425Z,96687.00
2019-04-19T16:20:18.674Z,96685.00
2019-04-19T16:22:52.008Z,96691.00
2019-04-19T16:25:25.393Z,96690.00
2019-04-19T16:27:57.556Z,96687.00
2019-04-19T16:30:30.462Z,96695.00
2019-04-19T16:33:03.733Z,96699.00
2019-04-19T16:35:36.145Z,96693.00
2019-04-19T16:38:07.888Z,96691.00
2019-04-19T16:40:40.621Z,96695.00
2019-04-19T16:43:13.263Z,96697.00
2019-04-19T16:45:46.227Z,96690.00
2019-04-19T16:48:18.812Z,96695.00
2019-04-19T16:50:52.306Z,96689.00
2019-04-19T16:53:24.669Z,96693.00
2019-04-19T16:55:59.400Z,96684.00
2019-04-19T16:58:32.661Z,96685.00
2019-04-19T17:01:04.919Z,96684.00
2019-04-19T17:03:37.460Z,96693.00
2019-04-19T17:06:12.918Z,96685.00
2019-04-19T17:08:44.222Z,96688.00
2019-04-19T17:11:19.636Z,96684.00
2019-04-19T17:13:53.037Z,96685.00
2019-04-19T17:16:52.811Z,96684.00
2019-04-19T17:19:28.958Z,96689.00
2019-04-19T17:22:08.794Z,96688.00
2019-04-19T17:24:34.815Z,96696.00
2019-04-19T17:27:06.947Z,96699.00
2019-04-19T17:29:38.664Z,96690.00
2019-04-19T17:32:10.490Z,96697.00
2019-04-19T17:34:42.925Z,96702.00
2019-04-19T17:37:16.031Z,96690.00
2019-04-19T17:39:48.897Z,96695.00
2019-04-19T17:42:22.276Z,96699.00
2019-04-19T17:44:55.581Z,96707.00
2019-04-19T17:47:33.273Z,96710.00
2019-04-19T17:50:02.722Z,96704.00
2019-04-19T17:52:37.455Z,96707.00
2019-04-19T17:55:20.778Z,96717.00
2019-04-19T17:57:43.390Z,96709.00
2019-04-19T18:00:16.579Z,96711.00
2019-04-19T18:02:49.012Z,96711.00
2019-04-19T18:05:22.204Z,96709.00
2019-04-19T18:07:55.954Z,96719.00
2019-04-19T18:10:37.808Z,96721.00
2019-04-19T18:13:01.662Z,96722.00
2019-04-19T18:15:34.879Z,96729.00
2019-04-19T18:18:09.948Z,96727.00
2019-04-19T18:20:48.913Z,96732.00
2019-04-19T18:23:28.928Z,96732.00
2019-04-19T18:25:49.047Z,96732.00
2019-04-19T18:28:26.128Z,96739.00
2019-04-19T18:30:57.151Z,96746.00
2019-04-19T18:33:33.414Z,96749.00
2019-04-19T18:36:09.479Z,96752.00
2019-04-19T18:38:40.019Z,96758.00
2019-04-19T18:41:13.298Z,96755.00
2019-04-19T18:43:59.864Z,96757.00
2019-04-19T18:46:20.484Z,96764.00
2019-04-19T18:48:53.643Z,96765.00
2019-04-19T18:51:36.005Z,96771.00
2019-04-19T18:54:11.360Z,96772.00
2019-04-19T18:56:33.410Z,96769.00
2019-04-19T18:59:11.850Z,96773.00
2019-04-19T19:01:41.332Z,96780.00
2019-04-19T19:04:20.215Z,96781.00
2019-04-19T19:06:48.105Z,96778.00
2019-04-19T19:09:32.733Z,96776.00
2019-04-19T19:12:00.872Z,96785.00
2019-04-19T19:14:29.096Z,96783.00
2019-04-19T19:17:08.336Z,96784.00
2019-04-19T19:19:36.550Z,96784.00
2019-04-19T19:22:08.573Z,96785.00
2019-04-19T19:24:58.372Z,96785.00
2019-04-19T19:27:21.447Z,96782.00
2019-04-19T19:29:48.359Z,96782.00
2019-04-19T19:32:22.471Z,96791.00
2019-04-19T19:35:00.967Z,96799.00
2019-04-19T19:37:32.074Z,96786.00
2019-04-19T19:40:13.127Z,96785.00
2019-04-19T19:42:56.026Z,96793.00
2019-04-19T19:45:28.020Z,96784.00
2019-04-19T19:48:42.447Z,96786.00
2019-04-19T19:51:08.549Z,96795.00
2019-04-19T19:56:19.794Z,96792.00
2019-04-19T19:58:38.263Z,96792.00
2019-04-19T20:01:17.279Z,96788.00
2019-04-19T20:03:42.672Z,96795.00
2019-04-19T20:06:14.422Z,96791.00
2019-04-19T20:08:45.957Z,96799.00
2019-04-19T20:11:23.650Z,96800.00
2019-04-19T20:13:54.607Z,96799.00
2019-04-19T20:16:27.580Z,96800.00
2019-04-19T20:19:00.142Z,96739.00
2019-04-19T20:21:32.576Z,96794.00
2019-04-19T20:24:15.064Z,96789.00
2019-04-19T20:26:51.920Z,96788.00
2019-04-19T20:29:21.367Z,96784.00
2019-04-19T20:31:45.948Z,96787.00
2019-04-19T20:34:22.834Z,96788.00
2019-04-19T20:36:51.549Z,96794.00
2019-04-19T20:39:28.069Z,96795.00
2019-04-19T20:42:00.866Z,96795.00
2019-04-19T20:44:43.248Z,96806.00
2019-04-19T20:47:04.702Z,96797.00
2019-04-19T20:49:42.824Z,96792.00
2019-04-19T20:52:28.451Z,96802.00
2019-04-19T20:55:11.520Z,96806.00
2019-04-19T20:57:59.083Z,96808.00
2019-04-19T21:00:35.459Z,96799.00
2019-04-19T21:03:08.192Z,96806.00
2019-04-19T21:05:44.848Z,96804.00
2019-04-19T21:08:16.255Z,96801.00
2019-04-19T21:10:55.418Z,96804.00
2019-04-19T21:13:21.500Z,96806.00
2019-04-19T21:15:54.360Z,96809.00
2019-04-19T21:18:29.496Z,96804.00
2019-04-19T21:21:09.015Z,96809.00
2019-04-19T21:23:38.849Z,96805.00
2019-04-19T21:26:18.064Z,96811.00
2019-04-19T21:28:47.705Z,96805.00
2019-04-19T21:31:20.834Z,96809.00
2019-04-19T21:33:55.659Z,96806.00
2019-04-19T21:36:34.511Z,96809.00
2019-04-19T21:39:05.942Z,96812.00
2019-04-19T21:41:38.088Z,96817.00
2019-04-19T21:44:10.257Z,96812.00
2019-04-19T21:46:42.302Z,96814.00
2019-04-19T21:49:17.578Z,96802.00
2019-04-19T21:51:48.285Z,96810.00
2019-04-19T21:54:20.879Z,96806.00
2019-04-19T21:56:54.427Z,96810.00
2019-04-19T21:59:35.459Z,96807.00
2019-04-19T22:02:07.545Z,96802.00
2019-04-19T22:04:45.747Z,96806.00
2019-04-19T22:07:13.496Z,96795.00
2019-04-19T22:09:49.944Z,96801.00
2019-04-19T22:12:20.674Z,96798.00
2019-04-19T22:14:55.074Z,96804.00
2019-04-19T22:17:27.269Z,96805.00
2019-04-19T22:20:07.136Z,96812.00
2019-04-19T22:22:35.306Z,96806.00
2019-04-19T22:25:11.986Z,96813.00
2019-04-19T22:27:41.387Z,96809.00
2019-04-19T22:30:13.755Z,96805.00
2019-04-19T22:32:51.235Z,96811.00
2019-04-19T22:35:22.691Z,96810.00
2019-04-19T22:37:54.595Z,96805.00
2019-04-19T22:40:26.910Z,96808.00
2019-04-19T22:43:04.841Z,96809.00
2019-04-19T22:45:32.805Z,96799.00
2019-04-19T22:48:12.812Z,96809.00
2019-04-19T22:50:40.487Z,96809.00
2019-04-19T22:53:12.686Z,96811.00
2019-04-19T22:55:53.871Z,96819.00
2019-04-19T22:58:24.164Z,96811.00
2019-04-19T23:00:53.250Z,96809.00
2019-04-19T23:03:38.881Z,96809.00
2019-04-19T23:06:12.562Z,96806.00
2019-04-19T23:08:44.967Z,96804.00
2019-04-19T23:11:17.408Z,96815.00
2019-04-19T23:13:49.452Z,96812.00
2019-04-19T23:16:21.614Z,96809.00
2019-04-19T23:19:00.945Z,96814.00
2019-04-19T23:21:27.185Z,96820.00
2019-04-19T23:24:03.928Z,96811.00
2019-04-19T23:26:54.272Z,96809.00
2019-04-19T23:29:06.672Z,96803.00
2019-04-19T23:31:45.844Z,96806.00
2019-04-19T23:34:14.286Z,96804.00
2019-04-19T23:36:50.810Z,96808.00
2019-04-19T23:39:21.133Z,96802.00
2019-04-19T23:41:53.353Z,96797.00
2019-04-19T23:44:26.579Z,96795.00
2019-04-19T23:47:01.601Z,96798.00
2019-04-19T23:49:33.302Z,96803.00
2019-04-19T23:52:05.412Z,96791.00
2019-04-19T23:54:38.642Z,96795.00
2019-04-19T23:57:17.829Z,96802.00
2019-04-19T23:59:52.417Z,96798.00
